createdAt,value
2018-04-13T00:00:32.900Z,6.63
2018-04-13T00:03:00.360Z,6.20
2018-04-13T00:05:27.799Z,6.80
2018-04-13T00:07:56.025Z,6.40
2018-04-13T00:10:23.464Z,6.37
2018-04-13T00:12:51.680Z,6.30
2018-04-13T00:15:19.124Z,6.20
2018-04-13T00:17:47.435Z,6.70
2018-04-13T00:20:14.879Z,7.03
2018-04-13T00:22:43.104Z,6.30
2018-04-13T00:25:10.548Z,6.00
2018-04-13T00:27:37.999Z,6.90
2018-04-13T00:30:06.213Z,7.43
2018-04-13T00:32:33.666Z,6.47
2018-04-13T00:35:01.107Z,7.03
2018-04-13T00:37:30.075Z,7.97
2018-04-13T00:39:57.512Z,6.67
2018-04-13T00:42:24.973Z,6.83
2018-04-13T00:44:53.185Z,6.93
2018-04-13T00:47:20.645Z,7.17
2018-04-13T00:49:48.083Z,7.73
2018-04-13T00:52:16.326Z,6.83
2018-04-13T00:54:43.743Z,7.63
2018-04-13T00:57:11.962Z,7.50
2018-04-13T00:59:39.399Z,7.37
2018-04-13T01:02:07.620Z,7.00
2018-04-13T01:04:35.073Z,7.97
2018-04-13T01:07:02.523Z,6.40
2018-04-13T01:09:30.740Z,7.63
2018-04-13T01:11:58.195Z,6.97
2018-04-13T01:14:25.635Z,7.10
2018-04-13T01:16:53.864Z,7.70
2018-04-13T01:19:21.325Z,8.37
2018-04-13T01:21:48.776Z,8.37
2018-04-13T01:24:16.982Z,8.90
2018-04-13T01:26:44.449Z,8.83
2018-04-13T01:29:11.931Z,7.80
2018-04-13T01:31:39.379Z,8.47
2018-04-13T01:34:06.820Z,8.70
2018-04-13T01:36:35.052Z,9.27
2018-04-13T01:39:02.503Z,8.90
2018-04-13T01:41:29.965Z,8.80
2018-04-13T01:43:57.415Z,9.30
2018-04-13T01:46:25.168Z,8.70
2018-04-13T01:48:52.608Z,8.07
2018-04-13T01:51:20.067Z,8.57
2018-04-13T01:53:47.511Z,8.00
2018-04-13T01:56:15.727Z,9.47
2018-04-13T01:58:43.179Z,10.10
2018-04-13T02:01:10.804Z,9.60
2018-04-13T02:03:38.263Z,10.53
2018-04-13T02:06:05.715Z,9.97
2018-04-13T02:08:33.169Z,10.30
2018-04-13T02:11:00.608Z,8.33
2018-04-13T02:13:28.831Z,9.17
2018-04-13T02:15:56.278Z,9.10
2018-04-13T02:18:24.504Z,9.80
2018-04-13T02:20:51.959Z,11.13
2018-04-13T02:23:19.425Z,9.73
2018-04-13T02:25:46.883Z,11.07
2018-04-13T02:28:14.503Z,11.27
2018-04-13T02:30:41.959Z,9.63
2018-04-13T02:33:09.421Z,9.70
2018-04-13T02:35:36.928Z,10.67
2018-04-13T02:38:04.344Z,11.37
2018-04-13T02:40:31.788Z,11.17
2018-04-13T02:42:59.251Z,11.77
2018-04-13T02:45:27.546Z,11.87
2018-04-13T02:47:55.016Z,12.17
2018-04-13T02:50:23.229Z,12.50
2018-04-13T02:52:50.705Z,10.60
2018-04-13T02:55:18.152Z,12.63
2018-04-13T02:57:45.619Z,11.77
2018-04-13T03:00:13.223Z,11.60
2018-04-13T03:02:40.688Z,12.40
2018-04-13T03:05:08.144Z,11.80
2018-04-13T03:07:35.621Z,13.70
2018-04-13T03:10:03.057Z,11.50
2018-04-13T03:12:30.529Z,12.87
2018-04-13T03:14:58.048Z,13.83
2018-04-13T03:17:25.517Z,13.67
2018-04-13T03:19:52.963Z,12.87
2018-04-13T03:22:20.489Z,13.63
2018-04-13T03:24:47.932Z,11.60
2018-04-13T03:27:15.396Z,11.93
2018-04-13T03:29:44.349Z,11.37
2018-04-13T03:32:11.808Z,12.40
2018-04-13T03:34:39.259Z,10.83
2018-04-13T03:37:07.691Z,11.80
2018-04-13T03:39:35.168Z,11.87
2018-04-13T03:42:02.633Z,11.23
2018-04-13T03:44:30.085Z,11.07
2018-04-13T03:46:57.543Z,11.07
2018-04-13T03:49:25.040Z,11.57
2018-04-13T03:51:52.504Z,10.97
2018-04-13T03:54:19.957Z,11.33
2018-04-13T03:56:47.526Z,11.53
2018-04-13T03:59:14.981Z,10.80
2018-04-13T04:01:43.212Z,9.30
2018-04-13T04:04:10.672Z,8.87
2018-04-13T04:06:38.141Z,8.37
2018-04-13T04:09:06.399Z,8.90
2018-04-13T04:11:34.629Z,9.27
2018-04-13T04:14:02.097Z,10.13
2018-04-13T04:16:29.595Z,9.80
2018-04-13T04:18:57.021Z,9.20
2018-04-13T04:21:36.320Z,8.63
2018-04-13T04:24:15.525Z,8.37
2018-04-13T04:26:47.026Z,8.00
2018-04-13T04:29:14.485Z,7.87
2018-04-13T04:31:41.973Z,6.60
2018-04-13T04:34:10.206Z,7.10
2018-04-13T04:36:37.653Z,7.07
2018-04-13T04:39:06.033Z,6.30
2018-04-13T04:41:34.249Z,7.90
2018-04-13T04:44:01.706Z,6.30
2018-04-13T04:46:29.161Z,6.63
2018-04-13T04:48:57.393Z,6.40
2018-04-13T04:51:24.836Z,6.43
2018-04-13T04:53:52.301Z,6.47
2018-04-13T04:56:19.744Z,6.80
2018-04-13T04:58:47.973Z,6.03
2018-04-13T05:01:15.417Z,6.63
2018-04-13T05:03:42.876Z,6.60
2018-04-13T05:06:11.099Z,6.33
2018-04-13T05:08:38.650Z,6.13
2018-04-13T05:11:06.109Z,6.10
2018-04-13T05:13:34.464Z,6.20
2018-04-13T05:16:01.905Z,6.03
2018-04-13T05:18:29.361Z,6.90
2018-04-13T05:20:56.829Z,6.23
2018-04-13T05:23:24.277Z,6.47
2018-04-13T05:25:51.729Z,5.93
2018-04-13T05:28:19.961Z,7.03
2018-04-13T05:30:47.412Z,7.03
2018-04-13T05:33:14.869Z,7.10
2018-04-13T05:35:42.324Z,6.63
2018-04-13T05:38:10.545Z,7.60
2018-04-13T05:40:37.999Z,7.10
2018-04-13T05:43:05.448Z,6.67
2018-04-13T05:45:33.660Z,6.30
2018-04-13T05:48:01.126Z,6.40
2018-04-13T05:50:28.570Z,7.13
2018-04-13T05:52:56.797Z,6.43
2018-04-13T05:55:24.259Z,6.43
2018-04-13T05:57:51.736Z,6.57
2018-04-13T06:00:19.195Z,6.53
2018-04-13T06:02:46.764Z,5.70
2018-04-13T06:05:14.214Z,6.30
2018-04-13T06:07:42.443Z,5.80
2018-04-13T06:10:09.921Z,6.00
2018-04-13T06:12:37.434Z,6.43
2018-04-13T06:15:05.649Z,5.77
2018-04-13T06:17:33.119Z,5.93
2018-04-13T06:20:00.569Z,5.90
2018-04-13T06:22:28.124Z,6.10
2018-04-13T06:24:56.495Z,6.20
2018-04-13T06:27:25.465Z,5.60
2018-04-13T06:29:52.905Z,5.43
2018-04-13T06:32:20.368Z,5.80
2018-04-13T06:34:48.585Z,5.53
2018-04-13T06:37:16.214Z,6.33
2018-04-13T06:39:43.643Z,5.87
2018-04-13T06:42:11.093Z,6.00
2018-04-13T06:44:38.565Z,6.60
2018-04-13T06:47:06.012Z,6.87
2018-04-13T06:49:33.477Z,6.37
2018-04-13T06:52:00.934Z,6.37
2018-04-13T06:54:28.381Z,6.70
2018-04-13T06:56:55.835Z,7.37
2018-04-13T06:59:23.290Z,6.43
2018-04-13T07:01:51.722Z,6.77
2018-04-13T07:04:19.947Z,7.07
2018-04-13T07:06:47.421Z,6.70
2018-04-13T07:09:14.904Z,6.43
2018-04-13T07:11:42.352Z,6.10
2018-04-13T07:14:09.817Z,7.20
2018-04-13T07:16:37.269Z,6.47
2018-04-13T07:19:05.497Z,6.43
2018-04-13T07:21:32.942Z,6.77
2018-04-13T07:24:00.401Z,6.97
2018-04-13T07:26:27.944Z,6.63
2018-04-13T07:28:55.399Z,6.50
2018-04-13T07:31:22.853Z,6.77
2018-04-13T07:33:50.316Z,7.37
2018-04-13T07:36:18.014Z,6.80
2018-04-13T07:38:45.246Z,6.00
2018-04-13T07:41:12.720Z,7.67
2018-04-13T07:43:40.177Z,7.00
2018-04-13T07:46:07.626Z,6.23
2018-04-13T07:48:35.094Z,6.13
2018-04-13T07:51:02.545Z,6.70
2018-04-13T07:53:30.766Z,7.60
2018-04-13T07:55:58.213Z,7.00
2018-04-13T07:58:25.876Z,7.20
2018-04-13T08:00:54.178Z,7.23
2018-04-13T08:03:21.360Z,6.40
2018-04-13T08:05:48.972Z,7.07
2018-04-13T08:08:16.269Z,6.40
2018-04-13T08:10:44.484Z,8.00
2018-04-13T08:13:11.953Z,7.27
2018-04-13T08:15:39.435Z,7.10
2018-04-13T08:18:07.621Z,7.73
2018-04-13T08:20:35.069Z,8.03
2018-04-13T08:23:02.557Z,9.37
2018-04-13T08:25:30.012Z,7.27
2018-04-13T08:27:57.485Z,9.10
2018-04-13T08:30:24.958Z,9.10
2018-04-13T08:32:52.424Z,10.50
2018-04-13T08:35:20.617Z,12.17
2018-04-13T08:37:48.071Z,10.93
2018-04-13T08:40:15.545Z,12.00
2018-04-13T08:42:43.002Z,10.53
2018-04-13T08:45:10.482Z,10.93
2018-04-13T08:47:37.983Z,12.80
2018-04-13T08:50:05.438Z,12.50
2018-04-13T08:52:32.913Z,12.17
2018-04-13T08:55:00.361Z,12.80
2018-04-13T08:57:27.896Z,12.03
2018-04-13T08:59:56.134Z,13.23
2018-04-13T09:02:23.580Z,15.03
2018-04-13T09:04:51.076Z,15.83
2018-04-13T09:07:18.514Z,16.37
2018-04-13T09:09:45.977Z,15.10
2018-04-13T09:12:13.429Z,16.07
2018-04-13T09:14:41.657Z,14.57
2018-04-13T09:17:09.109Z,16.10
2018-04-13T09:19:36.576Z,16.87
2018-04-13T09:22:04.029Z,14.23
2018-04-13T09:24:32.260Z,15.93
2018-04-13T09:26:59.721Z,16.07
2018-04-13T09:29:27.181Z,9.43
2018-04-13T09:31:54.641Z,5.90
2018-04-13T09:34:22.096Z,6.13
2018-04-13T09:36:50.409Z,8.17
2018-04-13T09:39:17.869Z,8.63
2018-04-13T09:41:45.326Z,9.90
2018-04-13T09:44:12.808Z,10.90
2018-04-13T09:46:40.269Z,10.00
2018-04-13T09:49:07.761Z,12.17
2018-04-13T09:51:35.237Z,12.90
2018-04-13T09:54:02.688Z,14.33
2018-04-13T09:56:30.160Z,13.13
2018-04-13T09:58:57.613Z,12.73
2018-04-13T10:01:25.085Z,12.60
2018-04-13T10:04:08.473Z,11.43
2018-04-13T10:06:35.948Z,10.80
2018-04-13T10:09:05.589Z,7.73
2018-04-13T10:11:33.817Z,6.43
2018-04-13T10:14:01.272Z,7.17
2018-04-13T10:16:28.760Z,8.03
2018-04-13T10:18:56.233Z,7.77
2018-04-13T10:21:23.692Z,7.90
2018-04-13T10:23:51.151Z,7.53
2018-04-13T10:26:21.611Z,8.73
2018-04-13T10:28:49.069Z,8.50
2018-04-13T10:31:16.526Z,7.77
2018-04-13T10:33:43.997Z,7.70
2018-04-13T10:36:11.458Z,7.50
2018-04-13T10:38:38.924Z,7.13
2018-04-13T10:41:06.386Z,7.20
2018-04-13T10:43:34.609Z,6.93
2018-04-13T10:46:02.078Z,7.87
2018-04-13T10:48:29.629Z,8.47
2018-04-13T10:50:57.125Z,8.50
2018-04-13T10:53:24.580Z,8.87
2018-04-13T10:55:52.040Z,7.63
2018-04-13T10:58:19.498Z,9.77
2018-04-13T11:00:46.961Z,8.23
2018-04-13T11:03:15.192Z,9.30
2018-04-13T11:05:42.649Z,7.73
2018-04-13T11:08:10.112Z,9.10
2018-04-13T11:10:37.582Z,5.53
2018-04-13T11:13:05.039Z,5.67
2018-04-13T11:15:32.493Z,4.00
2018-04-13T11:17:59.988Z,4.93
2018-04-13T11:20:27.433Z,4.83
2018-04-13T11:22:54.902Z,4.90
2018-04-13T11:25:22.364Z,5.10
2018-04-13T11:27:50.590Z,5.70
2018-04-13T11:30:18.036Z,4.83
2018-04-13T11:32:45.501Z,4.90
2018-04-13T11:35:12.954Z,5.00
2018-04-13T11:37:41.186Z,4.27
2018-04-13T11:40:08.645Z,3.97
2018-04-13T11:42:36.111Z,4.80
2018-04-13T11:45:03.553Z,4.80
2018-04-13T11:47:31.784Z,5.27
2018-04-13T11:49:59.244Z,5.30
2018-04-13T11:52:26.697Z,6.40
2018-04-13T11:54:54.286Z,5.80
2018-04-13T11:57:21.751Z,6.43
2018-04-13T11:59:49.208Z,5.20
2018-04-13T12:02:16.674Z,5.30
2018-04-13T12:04:44.120Z,4.20
2018-04-13T12:07:11.573Z,4.17
2018-04-13T12:09:39.805Z,4.70
2018-04-13T12:12:07.257Z,3.70
2018-04-13T12:14:34.721Z,4.37
2018-04-13T12:17:02.181Z,3.27
2018-04-13T12:19:30.412Z,3.30
2018-04-13T12:21:57.864Z,3.60
2018-04-13T12:24:25.329Z,3.43
2018-04-13T12:26:52.790Z,3.47
2018-04-13T12:29:20.266Z,3.40
2018-04-13T12:31:47.708Z,3.60
2018-04-13T12:34:15.951Z,4.23
2018-04-13T12:36:43.397Z,3.43
2018-04-13T12:39:10.853Z,3.80
2018-04-13T12:41:38.309Z,3.10
2018-04-13T12:44:06.532Z,3.43
2018-04-13T12:46:33.981Z,2.80
2018-04-13T12:49:01.455Z,2.57
2018-04-13T12:51:28.880Z,2.40
2018-04-13T12:53:57.160Z,2.40
2018-04-13T12:56:24.620Z,2.30
2018-04-13T12:58:52.029Z,2.50
2018-04-13T13:01:20.245Z,2.60
2018-04-13T13:03:47.698Z,2.47
2018-04-13T13:06:15.157Z,2.80
2018-04-13T13:08:42.617Z,2.70
2018-04-13T13:11:10.827Z,2.40
2018-04-13T13:13:38.292Z,2.90
2018-04-13T13:16:05.756Z,3.40
2018-04-13T13:18:33.201Z,2.90
2018-04-13T13:21:01.422Z,3.53
2018-04-13T13:23:28.871Z,2.90
2018-04-13T13:25:56.332Z,3.47
2018-04-13T13:28:24.552Z,3.60
2018-04-13T13:30:52.018Z,3.80
2018-04-13T13:33:19.460Z,3.53
2018-04-13T13:35:47.685Z,3.40
2018-04-13T13:38:15.134Z,3.67
2018-04-13T13:40:43.438Z,3.80
2018-04-13T13:43:10.864Z,4.60
2018-04-13T13:45:39.093Z,4.23
2018-04-13T13:48:06.549Z,4.60
2018-04-13T13:50:34.004Z,4.57
2018-04-13T13:53:01.540Z,4.80
2018-04-13T13:55:28.989Z,5.30
2018-04-13T13:57:56.437Z,5.63
2018-04-13T14:00:23.908Z,6.03
2018-04-13T14:02:51.345Z,5.90
2018-04-13T14:05:18.850Z,5.70
2018-04-13T14:07:46.295Z,6.33
2018-04-13T14:10:13.765Z,5.33
2018-04-13T14:12:41.206Z,5.90
2018-04-13T14:15:09.428Z,5.70
2018-04-13T14:17:36.877Z,5.77
2018-04-13T14:20:06.141Z,6.50
2018-04-13T14:22:33.585Z,7.10
2018-04-13T14:25:01.044Z,7.97
2018-04-13T14:27:28.503Z,7.50
2018-04-13T14:29:55.949Z,7.10
2018-04-13T14:32:24.206Z,7.77
2018-04-13T14:34:51.661Z,7.23
2018-04-13T14:37:19.125Z,8.00
2018-04-13T14:39:46.564Z,6.87
2018-04-13T14:42:14.230Z,6.77
2018-04-13T14:44:41.694Z,6.93
2018-04-13T14:47:09.137Z,6.97
2018-04-13T14:49:36.597Z,7.70
2018-04-13T14:52:04.076Z,7.47
2018-04-13T14:54:31.522Z,7.83
2018-04-13T14:56:59.263Z,7.23
2018-04-13T14:59:26.843Z,8.03
2018-04-13T15:01:54.301Z,8.20
2018-04-13T15:04:21.754Z,8.40
2018-04-13T15:06:49.978Z,8.40
2018-04-13T15:09:17.417Z,8.67
2018-04-13T15:11:45.655Z,7.97
2018-04-13T15:14:13.170Z,8.23
2018-04-13T15:16:41.389Z,8.20
2018-04-13T15:19:08.856Z,8.50
2018-04-13T15:21:36.375Z,8.23
2018-04-13T15:24:03.821Z,8.97
2018-04-13T15:26:31.269Z,8.50
2018-04-13T15:28:58.726Z,8.30
2018-04-13T15:31:26.178Z,8.40
2018-04-13T15:33:53.644Z,10.23
2018-04-13T15:36:21.097Z,10.53
2018-04-13T15:38:49.440Z,10.53
2018-04-13T15:41:16.894Z,9.60
2018-04-13T15:43:44.349Z,10.33
2018-04-13T15:46:11.802Z,9.97
2018-04-13T15:48:40.038Z,10.60
2018-04-13T15:51:07.494Z,10.93
2018-04-13T15:53:34.969Z,11.90
2018-04-13T15:56:02.417Z,11.27
2018-04-13T15:58:29.886Z,11.70
2018-04-13T16:00:57.342Z,9.77
2018-04-13T16:03:25.573Z,11.70
2018-04-13T16:05:53.034Z,11.00
2018-04-13T16:08:20.497Z,10.63
2018-04-13T16:10:48.066Z,11.90
2018-04-13T16:13:15.516Z,9.20
2018-04-13T16:15:43.158Z,13.07
2018-04-13T16:18:10.615Z,11.80
2018-04-13T16:20:39.646Z,13.77
2018-04-13T16:23:07.864Z,12.83
2018-04-13T16:25:35.329Z,11.43
2018-04-13T16:28:02.785Z,10.87
2018-04-13T16:30:30.244Z,10.90
2018-04-13T16:32:57.697Z,10.60
2018-04-13T16:35:25.924Z,10.33
2018-04-13T16:37:53.380Z,11.30
2018-04-13T16:40:20.841Z,10.53
2018-04-13T16:42:48.345Z,10.90
2018-04-13T16:45:15.812Z,10.37
2018-04-13T16:47:43.266Z,9.20
2018-04-13T16:50:10.761Z,9.07
2018-04-13T16:52:38.184Z,10.03
2018-04-13T16:55:05.657Z,9.70
2018-04-13T16:57:33.100Z,9.67
2018-04-13T17:00:01.325Z,8.30
2018-04-13T17:02:28.772Z,11.23
2018-04-13T17:04:56.247Z,11.17
2018-04-13T17:07:24.462Z,11.63
2018-04-13T17:09:51.926Z,9.80
2018-04-13T17:12:19.389Z,11.40
2018-04-13T17:14:46.951Z,11.77
2018-04-13T17:17:14.418Z,12.70
2018-04-13T17:19:41.888Z,12.97
2018-04-13T17:22:09.354Z,12.60
2018-04-13T17:24:36.819Z,11.60
2018-04-13T17:27:04.291Z,11.17
2018-04-13T17:29:31.762Z,11.60
2018-04-13T17:31:59.228Z,10.60
2018-04-13T17:34:27.445Z,11.80
2018-04-13T17:36:54.909Z,11.40
2018-04-13T17:39:22.373Z,12.47
2018-04-13T17:41:49.851Z,11.87
2018-04-13T17:44:17.309Z,12.97
2018-04-13T17:46:44.772Z,12.50
2018-04-13T17:49:12.225Z,11.97
2018-04-13T17:51:39.688Z,12.90
2018-04-13T17:54:07.152Z,12.00
2018-04-13T17:56:35.389Z,10.20
2018-04-13T17:59:02.853Z,11.03
2018-04-13T18:01:30.330Z,13.57
2018-04-13T18:03:57.840Z,13.93
2018-04-13T18:06:25.377Z,13.40
2018-04-13T18:08:52.838Z,11.77
2018-04-13T18:11:20.301Z,12.30
2018-04-13T18:13:47.869Z,12.53
2018-04-13T18:16:15.337Z,11.90
2018-04-13T18:18:42.816Z,14.57
2018-04-13T18:21:10.285Z,12.37
2018-04-13T18:23:37.740Z,13.20
2018-04-13T18:26:05.206Z,13.53
2018-04-13T18:28:32.658Z,12.77
2018-04-13T18:31:00.968Z,14.50
2018-04-13T18:33:28.418Z,12.50
2018-04-13T18:35:55.887Z,14.47
2018-04-13T18:38:23.345Z,15.67
2018-04-13T18:40:50.817Z,15.30
2018-04-13T18:43:18.269Z,15.80
2018-04-13T18:45:46.509Z,16.23
2018-04-13T18:48:13.966Z,16.00
2018-04-13T18:50:41.493Z,15.17
2018-04-13T18:53:08.958Z,14.10
2018-04-13T18:55:37.189Z,15.03
2018-04-13T18:58:04.771Z,12.70
2018-04-13T19:00:32.125Z,10.97
2018-04-13T19:02:59.588Z,11.07
2018-04-13T19:05:27.039Z,12.63
2018-04-13T19:07:55.270Z,13.63
2018-04-13T19:10:23.273Z,11.73
2018-04-13T19:12:50.815Z,12.37
2018-04-13T19:15:18.260Z,12.53
2018-04-13T19:17:45.730Z,12.03
2018-04-13T19:20:13.185Z,13.50
2018-04-13T19:22:41.416Z,15.23
2018-04-13T19:25:08.873Z,16.07
2018-04-13T19:27:36.345Z,15.00
2018-04-13T19:30:03.799Z,14.47
2018-04-13T19:32:31.265Z,12.73
2018-04-13T19:34:58.721Z,13.00
2018-04-13T19:37:26.944Z,12.90
2018-04-13T19:39:54.397Z,12.33
2018-04-13T19:42:21.860Z,10.87
2018-04-13T19:44:49.323Z,12.70
2018-04-13T19:47:16.794Z,13.87
2018-04-13T19:49:44.248Z,14.30
2018-04-13T19:52:11.732Z,15.40
2018-04-13T19:54:39.194Z,16.10
2018-04-13T19:57:06.659Z,15.87
2018-04-13T19:59:34.113Z,15.40
2018-04-13T20:02:02.349Z,14.60
2018-04-13T20:04:29.801Z,15.07
2018-04-13T20:06:57.269Z,13.27
2018-04-13T20:09:24.721Z,14.30
2018-04-13T20:11:52.197Z,14.30
2018-04-13T20:14:24.640Z,13.33
2018-04-13T20:16:52.109Z,12.13
2018-04-13T20:19:19.573Z,14.27
2018-04-13T20:21:48.549Z,14.70
2018-04-13T20:24:16.009Z,14.87
2018-04-13T20:26:43.481Z,13.80
2018-04-13T20:29:10.942Z,14.50
2018-04-13T20:31:38.421Z,14.50
2018-04-13T20:34:05.877Z,15.10
2018-04-13T20:36:33.337Z,13.57
2018-04-13T20:39:00.810Z,13.17
2018-04-13T20:41:28.269Z,14.67
2018-04-13T20:43:55.736Z,14.90
2018-04-13T20:46:23.258Z,16.47
2018-04-13T20:48:50.714Z,16.73
2018-04-13T20:51:18.168Z,16.60
2018-04-13T20:53:45.640Z,16.43
2018-04-13T20:56:13.259Z,16.57
2018-04-13T20:58:40.733Z,17.43
2018-04-13T21:01:08.191Z,16.87
2018-04-13T21:03:35.661Z,17.10
2018-04-13T21:06:03.142Z,19.42
2018-04-13T21:08:31.373Z,18.00
2018-04-13T21:10:58.845Z,17.67
2018-04-13T21:13:26.319Z,18.97
2018-04-13T21:15:53.777Z,20.17
2018-04-13T21:18:21.240Z,20.17
2018-04-13T21:20:48.701Z,21.40
2018-04-13T21:23:16.179Z,19.73
2018-04-13T21:25:43.633Z,20.53
2018-04-13T21:28:11.318Z,21.23
2018-04-13T21:30:38.756Z,21.80
2018-04-13T21:33:07.013Z,24.07
2018-04-13T21:35:34.465Z,24.90
2018-04-13T21:38:01.917Z,27.60
2018-04-13T21:40:29.385Z,27.57
2018-04-13T21:42:56.845Z,25.93
2018-04-13T21:45:24.317Z,23.27
2018-04-13T21:47:51.763Z,27.17
2018-04-13T21:50:20.026Z,28.80
2018-04-13T21:52:47.478Z,29.80
2018-04-13T21:55:14.949Z,31.83
2018-04-13T21:57:42.416Z,33.67
2018-04-13T22:00:09.914Z,32.90
2018-04-13T22:02:38.148Z,31.40
2018-04-13T22:05:05.621Z,34.70
2018-04-13T22:07:33.081Z,35.20
2018-04-13T22:10:00.568Z,39.33
2018-04-13T22:12:40.005Z,45.07
2018-04-13T22:15:07.477Z,46.73
2018-04-13T22:17:34.945Z,45.00
2018-04-13T22:20:02.417Z,43.83
2018-04-13T22:22:29.876Z,44.80
2018-04-13T22:24:57.346Z,48.83
2018-04-13T22:27:24.803Z,52.90
2018-04-13T22:29:52.273Z,49.47
2018-04-13T22:32:19.724Z,50.00
2018-04-13T22:34:47.969Z,48.47
2018-04-13T22:37:15.430Z,49.70
2018-04-13T22:39:42.895Z,49.73
2018-04-13T22:42:10.365Z,48.27
2018-04-13T22:44:37.816Z,53.63
2018-04-13T22:47:05.291Z,56.77
2018-04-13T22:49:32.744Z,56.30
2018-04-13T22:52:00.204Z,57.93
2018-04-13T22:54:27.664Z,61.00
2018-04-13T22:56:55.129Z,57.60
2018-04-13T22:59:23.349Z,59.13
2018-04-13T23:01:50.812Z,55.30
2018-04-13T23:04:18.273Z,55.83
2018-04-13T23:06:45.743Z,53.33
2018-04-13T23:09:13.254Z,50.43
2018-04-13T23:11:41.442Z,50.97
2018-04-13T23:14:08.888Z,49.83
2018-04-13T23:16:36.366Z,48.47
2018-04-13T23:19:03.873Z,47.27
2018-04-13T23:21:31.304Z,45.43
2018-04-13T23:23:58.762Z,46.33
2018-04-13T23:26:26.334Z,47.47
2018-04-13T23:28:53.793Z,48.87
2018-04-13T23:31:21.265Z,49.07
2018-04-13T23:33:48.725Z,51.97
2018-04-13T23:36:16.208Z,51.53
2018-04-13T23:38:43.660Z,51.40
2018-04-13T23:41:11.192Z,52.27
2018-04-13T23:43:38.652Z,51.43
2018-04-13T23:46:06.118Z,53.03
2018-04-13T23:48:33.581Z,53.13
2018-04-13T23:51:01.037Z,52.77
2018-04-13T23:53:28.510Z,52.90
2018-04-13T23:55:55.964Z,54.73
2018-04-13T23:58:23.437Z,53.80
